Time;durP1;ratioP1;P1;durP2;ratioP2;P2;SDS_P1;SDS_P2;PMS_P1;PMS_P2;Temp;Humidity;BMP_temperature;BMP_pressure;BME280_temperature;BME280_humidity;BME280_pressure;Samples;Min_cycle;Max_cycle;Signal;HPM_P1;HPM_P2
2022/05/24 00:01:57;;;;;;;9.32;4.15;;;;;;;;;;5073487;28;20459;-67
2022/05/24 00:04:23;;;;;;;9.13;4.35;;;24.10;78.80;;;;;;5073583;28;20048;-65
2022/05/24 00:06:49;;;;;;;8.02;3.75;;;24.00;80.60;;;;;;5055000;28;20139;-66
2022/05/24 00:09:14;;;;;;;6.68;3.83;;;23.80;80.20;;;;;;5071620;28;20044;-65
2022/05/24 00:11:40;;;;;;;8.38;3.55;;;24.00;80.50;;;;;;5073666;28;20401;-65
2022/05/24 00:14:06;;;;;;;7.65;3.60;;;24.00;80.20;;;;;;5073812;28;20048;-67
2022/05/24 00:16:32;;;;;;;5.65;3.00;;;23.80;80.40;;;;;;5073509;28;20036;-67
2022/05/24 00:18:57;;;;;;;6.45;3.42;;;23.80;80.30;;;;;;5087280;28;20120;-67
2022/05/24 00:21:23;;;;;;;6.00;3.22;;;23.80;80.40;;;;;;5055353;28;20477;-67
2022/05/24 00:23:49;;;;;;;5.53;2.85;;;23.90;80.20;;;;;;5073245;28;20045;-67
2022/05/24 00:26:27;;;;;;;6.60;2.88;;;23.80;80.50;;;;;;5071998;28;20659;-67
2022/05/24 00:28:53;;;;;;;6.63;2.90;;;23.90;79.40;;;;;;5103538;28;20024;-67
2022/05/24 00:31:19;;;;;;;5.55;2.60;;;23.90;80.50;;;;;;5073406;28;20458;-66
2022/05/24 00:33:44;;;;;;;6.45;2.95;;;24.00;80.20;;;;;;5071594;28;20040;-67
2022/05/24 00:36:10;;;;;;;6.03;2.85;;;23.90;80.40;;;;;;5070829;28;20052;-67
2022/05/24 00:38:40;;;;;;;4.05;2.40;;;23.60;79.70;;;;;;5072314;28;20076;-67
2022/05/24 00:41:13;;;;;;;5.88;2.63;;;23.80;80.30;;;;;;5072375;28;20072;-66
2022/05/24 00:43:45;;;;;;;6.40;2.75;;;23.80;80.90;;;;;;5072411;28;20052;-66
2022/05/24 00:46:26;;;;;;;4.63;2.45;;;24.00;79.10;;;;;;5071939;28;20382;-66
2022/05/24 00:48:56;;;;;;;5.22;2.63;;;23.80;80.90;;;;;;5072912;28;20428;-67
2022/05/24 00:51:34;;;;;;;6.07;2.90;;;23.60;80.60;;;;;;5077014;28;20051;-67
2022/05/24 00:54:00;;;;;;;4.82;2.33;;;23.70;80.70;;;;;;5066224;28;20106;-67
2022/05/24 00:56:48;;;;;;;5.72;2.58;;;23.80;80.30;;;;;;5088478;28;20094;-67
2022/05/24 00:59:22;;;;;;;5.60;2.35;;;23.80;79.20;;;;;;5054000;28;20513;-67
2022/05/24 01:01:47;;;;;;;5.03;2.53;;;23.80;79.00;;;;;;5070992;28;20730;-67
2022/05/24 01:04:14;;;;;;;5.30;2.50;;;23.70;80.00;;;;;;5088010;28;20048;-67
2022/05/24 01:06:40;;;;;;;6.45;2.88;;;23.60;80.10;;;;;;5071805;28;20040;-67
2022/05/24 01:09:24;;;;;;;4.82;2.33;;;23.70;80.00;;;;;;5053622;28;20417;-67
2022/05/24 01:11:51;;;;;;;4.95;2.30;;;23.70;79.00;;;;;;5062808;28;20051;-67
2022/05/24 01:14:17;;;;;;;4.93;2.38;;;23.90;80.50;;;;;;5071221;28;20062;-67
2022/05/24 01:16:43;;;;;;;4.65;2.10;;;23.70;80.10;;;;;;5087542;28;20037;-67
2022/05/24 01:19:13;;;;;;;4.68;2.47;;;23.50;79.80;;;;;;5083714;28;20047;-66
2022/05/24 01:21:39;;;;;;;5.18;2.08;;;23.70;80.30;;;;;;5071213;28;20086;-67
2022/05/24 01:24:31;;;;;;;7.80;2.60;;;23.70;79.80;;;;;;5072838;28;20032;-66
2022/05/24 01:26:57;;;;;;;4.40;2.35;;;23.70;78.70;;;;;;5068560;28;20060;-67
2022/05/24 01:29:24;;;;;;;5.50;2.50;;;23.70;80.00;;;;;;5069985;28;20151;-67
2022/05/24 01:37:19;;;;;;;5.60;2.78;;;23.60;79.70;;;;;;5071626;28;20142;-67
2022/05/24 01:39:47;;;;;;;6.60;2.65;;;23.50;79.80;;;;;;5068040;28;20045;-67
2022/05/24 01:42:13;;;;;;;4.10;2.13;;;23.50;80.10;;;;;;5067141;28;20045;-66
2022/05/24 01:44:51;;;;;;;5.35;2.22;;;26.00;81.50;;;;;;5084503;28;20046;-67
2022/05/24 01:47:17;;;;;;;4.18;2.28;;;23.50;80.40;;;;;;5104611;28;20513;-67
2022/05/24 01:49:45;;;;;;;5.25;2.25;;;23.50;79.70;;;;;;5087895;28;20107;-66
2022/05/24 01:52:18;;;;;;;6.03;2.58;;;23.30;79.90;;;;;;5071446;28;20040;-67
2022/05/24 01:54:55;;;;;;;6.30;2.80;;;23.60;80.90;;;;;;5104860;28;20394;-67
2022/05/24 01:57:31;;;;;;;4.88;2.50;;;23.50;78.50;;;;;;5102647;28;20045;-67
2022/05/24 01:59:57;;;;;;;4.75;2.47;;;23.70;78.60;;;;;;5085872;28;20375;-67
2022/05/24 02:02:23;;;;;;;5.35;2.28;;;23.80;79.90;;;;;;5086949;28;20056;-67
2022/05/24 02:04:48;;;;;;;5.15;2.45;;;23.70;79.70;;;;;;5107615;28;20036;-67
2022/05/24 02:07:17;;;;;;;4.72;2.65;;;23.40;79.60;;;;;;5076346;28;20052;-67
2022/05/24 02:09:45;;;;;;;5.65;2.50;;;23.60;80.00;;;;;;5075641;28;20048;-67
2022/05/24 02:12:19;;;;;;;4.95;2.15;;;23.20;82.40;;;;;;5102821;28;20103;-65
2022/05/24 02:14:59;;;;;;;4.88;2.65;;;23.60;80.10;;;;;;5089189;28;20500;-66
2022/05/24 02:17:51;;;;;;;6.93;2.40;;;23.20;78.30;;;;;;5090013;28;20063;-65
2022/05/24 02:20:20;;;;;;;4.75;2.55;;;23.30;79.60;;;;;;5072684;28;20489;-66
2022/05/24 02:22:46;;;;;;;6.03;2.92;;;23.50;79.80;;;;;;5090022;28;20543;-66
2022/05/24 02:25:41;;;;;;;6.45;2.15;;;23.60;79.60;;;;;;5091664;28;20048;-65
2022/05/24 02:28:09;;;;;;;5.10;2.28;;;23.20;78.50;;;;;;5090502;28;20079;-66
2022/05/24 02:30:39;;;;;;;6.53;2.80;;;23.30;79.60;;;;;;5091161;28;20040;-65
2022/05/24 02:33:05;;;;;;;6.70;2.63;;;23.40;79.90;;;;;;5071237;28;20452;-67
2022/05/24 02:35:31;;;;;;;5.00;2.53;;;23.50;79.50;;;;;;5075514;28;20123;-65
2022/05/24 02:37:57;;;;;;;7.18;2.67;;;23.30;79.30;;;;;;5075300;28;20048;-65
2022/05/24 02:43:07;;;;;;;5.72;2.30;;;23.40;78.50;;;;;;5075346;28;20047;-67
2022/05/24 02:45:33;;;;;;;6.38;2.63;;;23.00;79.20;;;;;;5074630;28;20048;-67
2022/05/24 02:47:59;;;;;;;5.10;2.75;;;23.20;79.30;;;;;;5073857;28;20482;-67
2022/05/24 02:50:25;;;;;;;5.53;2.58;;;23.30;79.50;;;;;;5091028;28;20080;-67
2022/05/24 02:52:50;;;;;;;6.47;3.00;;;23.40;79.70;;;;;;5074849;28;20131;-67
2022/05/24 02:55:16;;;;;;;6.22;3.03;;;23.30;79.30;;;;;;5073652;28;20131;-67
2022/05/24 02:57:42;;;;;;;7.40;2.50;;;23.50;79.70;;;;;;5106901;28;20048;-67
2022/05/24 03:00:14;;;;;;;6.97;2.53;;;23.20;79.40;;;;;;5074838;28;20028;-67
2022/05/24 03:02:40;;;;;;;4.57;2.53;;;23.40;78.30;;;;;;5106823;28;20049;-67
2022/05/24 03:05:07;;;;;;;6.28;2.50;;;23.20;79.30;;;;;;5072990;28;20402;-67
2022/05/24 03:10:18;;;;;;;5.35;2.58;;;23.20;79.00;;;;;;5075114;28;20079;-67
2022/05/24 03:15:28;;;;;;;5.93;2.70;;;23.00;82.50;;;;;;5071928;28;20517;-67
2022/05/24 03:17:54;;;;;;;5.70;2.90;;;23.20;79.40;;;;;;5074863;28;20131;-67
2022/05/24 03:20:20;;;;;;;4.47;2.60;;;23.00;79.20;;;;;;5074803;28;20060;-68
2022/05/24 03:22:46;;;;;;;6.18;2.58;;;23.50;79.70;;;;;;5107405;28;20052;-67
2022/05/24 03:25:13;;;;;;;4.78;2.55;;;23.30;82.60;;;;;;5089679;28;20044;-67
2022/05/24 03:27:39;;;;;;;7.15;3.10;;;21.80;78.70;;;;;;5086650;28;20052;-67
2022/05/24 03:30:05;;;;;;;5.88;2.95;;;23.30;79.40;;;;;;5073021;28;20047;-67
2022/05/24 03:32:31;;;;;;;4.75;3.03;;;23.40;79.20;;;;;;5089891;28;20044;-67
2022/05/24 03:34:57;;;;;;;5.53;2.95;;;23.20;79.40;;;;;;5089794;28;20055;-67
2022/05/24 03:37:23;;;;;;;6.25;2.88;;;23.20;79.40;;;;;;5073292;28;20053;-67
2022/05/24 03:39:48;;;;;;;5.35;3.05;;;23.20;79.30;;;;;;5107042;28;20056;-67
2022/05/24 03:42:14;;;;;;;5.88;3.45;;;23.40;79.50;;;;;;5089549;28;20048;-67
2022/05/24 03:44:40;;;;;;;5.88;3.10;;;;;;;;;;5072894;28;20041;-67
2022/05/24 03:47:06;;;;;;;5.40;3.20;;;23.10;77.40;;;;;;5089057;28;20186;-66
2022/05/24 03:49:33;;;;;;;6.60;3.40;;;;;;;;;;5072108;28;20063;-67
2022/05/24 03:51:59;;;;;;;6.25;3.42;;;23.30;77.50;;;;;;5056530;28;20037;-67
2022/05/24 03:54:25;;;;;;;6.72;3.65;;;23.40;79.50;;;;;;5105529;28;20048;-67
2022/05/24 03:59:34;;;;;;;7.20;4.20;;;23.00;78.40;;;;;;5071973;28;20552;-67
2022/05/24 04:02:00;;;;;;;7.30;4.20;;;23.30;79.60;;;;;;5074113;28;20040;-67
2022/05/24 04:04:26;;;;;;;6.68;3.97;;;23.50;79.70;;;;;;5073436;28;20072;-66
2022/05/24 04:06:52;;;;;;;7.18;4.78;;;23.20;79.50;;;;;;5106583;28;20147;-66
2022/05/24 04:09:18;;;;;;;6.80;4.90;;;23.30;79.30;;;;;;5072596;28;20075;-66
2022/05/24 04:11:43;;;;;;;8.63;5.13;;;23.30;79.50;;;;;;5073871;28;20040;-66
2022/05/24 04:14:09;;;;;;;7.45;4.82;;;23.30;79.40;;;;;;5073626;28;20540;-66
2022/05/24 04:16:35;;;;;;;6.97;4.90;;;23.20;79.30;;;;;;5073878;28;20044;-66
2022/05/24 04:19:01;;;;;;;8.52;5.20;;;23.30;79.40;;;;;;5072979;28;20067;-66
2022/05/24 04:21:27;;;;;;;7.00;5.07;;;23.20;82.60;;;;;;5069152;28;20044;-67
2022/05/24 04:23:53;;;;;;;8.57;5.53;;;23.40;79.50;;;;;;5072011;28;20040;-66
2022/05/24 04:26:19;;;;;;;8.18;5.88;;;23.40;79.60;;;;;;5072176;28;20048;-66
2022/05/24 04:28:45;;;;;;;10.00;6.05;;;23.40;79.60;;;;;;5072237;28;20101;-66
2022/05/24 04:31:10;;;;;;;9.63;6.10;;;23.10;79.30;;;;;;5065004;28;20040;-66
2022/05/24 04:33:36;;;;;;;9.85;6.60;;;23.30;79.30;;;;;;5073178;28;20032;-67
2022/05/24 04:36:02;;;;;;;8.57;6.05;;;22.80;79.40;;;;;;5072008;28;20109;-66
2022/05/24 04:38:28;;;;;;;10.32;6.28;;;24.20;79.70;;;;;;5072318;28;20115;-67
2022/05/24 04:43:38;;;;;;;9.52;6.30;;;23.40;78.60;;;;;;5085997;28;20044;-67
2022/05/24 04:46:04;;;;;;;9.40;6.38;;;23.20;79.50;;;;;;5073203;28;20374;-66
2022/05/24 04:48:30;;;;;;;9.93;6.70;;;23.20;79.20;;;;;;5072988;28;20040;-66
2022/05/24 04:50:56;;;;;;;8.93;6.50;;;23.20;79.30;;;;;;5105765;28;20060;-67
2022/05/24 04:53:23;;;;;;;10.25;7.00;;;23.10;80.20;;;;;;5064362;28;20105;-66
2022/05/24 04:55:49;;;;;;;8.90;6.55;;;23.10;79.60;;;;;;5073146;28;20045;-68
2022/05/24 04:58:16;;;;;;;9.27;6.55;;;23.30;79.30;;;;;;5073027;28;20405;-68
2022/05/24 05:00:41;;;;;;;8.73;6.65;;;23.30;79.80;;;;;;5072748;28;20032;-67
2022/05/24 05:03:09;;;;;;;9.57;6.63;;;23.30;79.40;;;;;;5104679;28;20029;-67
2022/05/24 05:05:34;;;;;;;9.05;6.25;;;23.10;79.70;;;;;;5101413;28;20048;-67
2022/05/24 05:08:00;;;;;;;10.82;6.38;;;23.20;79.50;;;;;;5071021;28;20043;-67
2022/05/24 05:10:26;;;;;;;8.80;6.65;;;23.30;79.60;;;;;;5067273;28;20060;-67
2022/05/24 05:12:52;;;;;;;11.13;6.65;;;23.00;79.30;;;;;;5066917;28;20086;-67
2022/05/24 05:15:17;;;;;;;8.13;6.55;;;23.20;79.40;;;;;;5067370;28;20482;-68
2022/05/24 05:17:43;;;;;;;10.10;6.07;;;23.50;79.70;;;;;;5087833;28;20048;-67
2022/05/24 05:20:09;;;;;;;9.55;6.45;;;23.30;79.60;;;;;;5072643;28;20041;-66
2022/05/24 05:22:37;;;;;;;9.27;6.63;;;23.30;79.30;;;;;;5072336;28;20032;-66
2022/05/24 05:25:03;;;;;;;11.88;7.25;;;23.20;79.00;;;;;;5071514;28;20052;-67
2022/05/24 05:27:28;;;;;;;9.80;6.43;;;23.50;79.40;;;;;;5054573;28;20056;-67
2022/05/24 05:32:39;;;;;;;10.32;6.97;;;23.30;78.60;;;;;;5070985;28;20424;-67
2022/05/24 05:35:05;;;;;;;9.82;6.80;;;23.60;79.60;;;;;;5071599;28;20174;-67
2022/05/24 05:37:31;;;;;;;9.65;6.38;;;23.30;79.30;;;;;;5087083;28;20060;-66
2022/05/24 05:39:57;;;;;;;10.50;6.80;;;22.70;79.00;;;;;;5078087;28;20124;-67
2022/05/24 05:42:24;;;;;;;8.40;6.65;;;23.60;79.80;;;;;;5079166;28;20175;-66
2022/05/24 05:44:50;;;;;;;9.65;7.10;;;23.40;79.50;;;;;;5059341;28;20043;-68
2022/05/24 05:47:16;;;;;;;10.27;6.70;;;23.40;79.50;;;;;;5078214;28;20040;-67
2022/05/24 05:49:42;;;;;;;10.45;6.00;;;23.50;79.40;;;;;;5077287;28;20054;-68
2022/05/24 05:52:08;;;;;;;9.75;6.45;;;22.90;79.20;;;;;;5059423;28;20044;-67
2022/05/24 05:54:34;;;;;;;9.25;6.13;;;23.50;80.20;;;;;;5073199;28;20044;-67
2022/05/24 05:57:00;;;;;;;8.90;6.15;;;23.30;79.60;;;;;;5091696;28;20053;-67
2022/05/24 05:59:26;;;;;;;9.68;5.72;;;23.30;79.40;;;;;;5077738;28;20130;-67
2022/05/24 06:01:59;;;;;;;8.98;6.07;;;23.30;79.60;;;;;;5044622;28;20457;-67
2022/05/24 06:04:25;;;;;;;8.30;5.97;;;23.70;78.50;;;;;;5094346;28;20149;-67
2022/05/24 06:06:52;;;;;;;9.45;6.10;;;23.50;79.80;;;;;;5087520;28;20481;-67
2022/05/24 06:09:18;;;;;;;9.10;5.65;;;23.40;79.40;;;;;;5079203;28;20070;-66
2022/05/24 06:11:44;;;;;;;8.75;5.82;;;23.50;79.70;;;;;;5077410;28;20037;-66
2022/05/24 06:14:10;;;;;;;9.00;5.80;;;23.50;79.60;;;;;;5111613;28;20562;-67
2022/05/24 06:16:36;;;;;;;8.82;5.40;;;23.50;79.70;;;;;;5073964;28;20044;-67
2022/05/24 06:19:02;;;;;;;8.23;5.75;;;23.30;79.60;;;;;;5060382;28;20044;-67
2022/05/24 06:21:33;;;;;;;8.75;5.18;;;23.60;79.90;;;;;;5094427;28;20127;-67
2022/05/24 06:24:03;;;;;;;9.52;5.05;;;23.40;79.70;;;;;;5078599;28;20393;-67
2022/05/24 06:26:29;;;;;;;8.20;5.40;;;23.50;79.90;;;;;;5079094;28;20044;-68
2022/05/24 06:28:56;;;;;;;7.90;5.32;;;23.30;79.60;;;;;;5093003;28;20046;-67
2022/05/24 06:31:22;;;;;;;8.70;5.88;;;23.40;79.90;;;;;;5077444;28;20044;-67
2022/05/24 06:33:48;;;;;;;9.50;5.88;;;23.60;79.60;;;;;;5076857;28;20044;-67
2022/05/24 06:36:14;;;;;;;8.93;5.70;;;23.50;79.90;;;;;;5078486;28;20070;-67
2022/05/24 06:38:40;;;;;;;8.45;5.88;;;23.50;79.40;;;;;;5087309;28;20123;-68
2022/05/24 06:41:06;;;;;;;7.93;5.80;;;23.80;79.80;;;;;;5076906;28;20114;-67
2022/05/24 06:43:33;;;;;;;9.82;5.93;;;23.70;79.50;;;;;;5111381;28;20055;-68
2022/05/24 06:45:59;;;;;;;10.50;6.20;;;23.90;80.00;;;;;;5076824;28;20049;-68
2022/05/24 06:48:24;;;;;;;8.75;6.28;;;23.80;79.20;;;;;;5103265;28;20190;-67
2022/05/24 06:50:50;;;;;;;9.18;6.30;;;23.60;82.40;;;;;;5073496;28;20491;-69
2022/05/24 06:53:17;;;;;;;9.32;6.32;;;23.70;82.20;;;;;;5101977;28;20057;-65
2022/05/24 06:55:43;;;;;;;11.85;6.97;;;23.70;78.60;;;;;;5075118;28;20048;-65
2022/05/24 06:58:09;;;;;;;9.98;6.53;;;23.70;79.00;;;;;;5073612;28;20045;-65
2022/05/24 07:03:19;;;;;;;11.07;7.55;;;23.70;78.00;;;;;;5069462;28;20041;-65
2022/05/24 07:05:45;;;;;;;11.57;6.70;;;23.50;78.80;;;;;;5075120;28;20048;-65
2022/05/24 07:08:11;;;;;;;10.25;6.78;;;23.50;81.90;;;;;;5107063;28;20032;-66
2022/05/24 07:10:37;;;;;;;10.13;6.43;;;23.70;79.00;;;;;;5057421;28;20072;-64
2022/05/24 07:13:15;;;;;;;12.18;7.03;;;23.70;79.10;;;;;;5055492;28;20053;-65
2022/05/24 07:15:40;;;;;;;9.95;7.07;;;23.60;77.70;;;;;;5100695;28;20048;-65
2022/05/24 07:18:06;;;;;;;10.88;6.35;;;23.90;79.00;;;;;;5074733;28;20065;-66
2022/05/24 07:20:33;;;;;;;10.32;6.55;;;23.70;78.70;;;;;;5107404;28;20394;-67
2022/05/24 07:23:25;;;;;;;9.77;5.93;;;23.70;79.10;;;;;;5099831;28;20524;-67
2022/05/24 07:25:51;;;;;;;9.20;5.90;;;23.60;79.20;;;;;;5069772;28;20056;-68
2022/05/24 07:28:17;;;;;;;7.78;5.72;;;23.80;78.80;;;;;;5073097;28;20063;-68
2022/05/24 07:30:44;;;;;;;11.43;6.10;;;23.50;78.80;;;;;;5073446;28;20507;-65
2022/05/24 07:33:10;;;;;;;8.77;5.97;;;23.50;78.90;;;;;;5089384;28;20048;-67
2022/05/24 07:35:37;;;;;;;8.63;5.93;;;23.70;78.80;;;;;;5056324;28;20064;-67
2022/05/24 07:38:09;;;;;;;12.20;6.43;;;23.50;78.60;;;;;;5074223;28;20052;-67
2022/05/24 07:46:08;;;;;;;9.85;5.82;;;23.60;77.90;;;;;;5073379;28;20041;-65
2022/05/24 07:48:34;;;;;;;10.98;5.88;;;23.60;79.30;;;;;;5074505;28;20402;-67
2022/05/24 07:51:00;;;;;;;8.27;5.40;;;23.70;78.70;;;;;;5074086;28;20089;-66
2022/05/24 07:53:26;;;;;;;9.15;5.75;;;23.60;82.20;;;;;;5106649;28;20434;-65
2022/05/24 07:55:54;;;;;;;11.57;5.82;;;23.40;78.80;;;;;;5065018;28;20117;-66
2022/05/24 07:58:20;;;;;;;9.43;6.10;;;23.70;79.30;;;;;;5072281;28;20068;-66
2022/05/24 08:00:46;;;;;;;11.60;6.70;;;23.30;78.80;;;;;;5105744;28;20044;-66
2022/05/24 08:03:12;;;;;;;11.93;6.72;;;23.70;78.60;;;;;;5106340;28;20076;-65
2022/05/24 08:05:38;;;;;;;11.43;6.82;;;23.60;78.80;;;;;;5105526;28;20574;-67
2022/05/24 08:08:05;;;;;;;9.52;5.68;;;23.30;78.70;;;;;;5072940;28;20059;-65
2022/05/24 08:10:31;;;;;;;10.85;5.75;;;23.20;78.60;;;;;;5055623;28;20037;-65
2022/05/24 08:12:57;;;;;;;8.05;5.45;;;23.40;78.90;;;;;;5065891;28;20041;-66
2022/05/24 08:15:24;;;;;;;10.15;5.40;;;23.40;78.90;;;;;;5071703;28;20079;-66
2022/05/24 08:17:50;;;;;;;10.45;5.05;;;23.30;79.00;;;;;;5072861;28;20053;-65
2022/05/24 08:20:16;;;;;;;8.57;5.22;;;23.50;78.90;;;;;;5106228;28;20047;-66
2022/05/24 08:22:42;;;;;;;8.45;5.10;;;23.40;78.90;;;;;;5106034;28;20049;-66
2022/05/24 08:25:08;;;;;;;8.98;5.10;;;23.30;78.60;;;;;;5073803;28;20036;-66
2022/05/24 08:27:34;;;;;;;7.97;4.57;;;23.40;78.70;;;;;;5049593;28;20049;-65
2022/05/24 08:30:01;;;;;;;10.13;5.35;;;23.40;78.60;;;;;;5072188;28;20041;-65
2022/05/24 08:32:26;;;;;;;9.32;4.97;;;23.40;78.80;;;;;;5071849;28;20425;-66
2022/05/24 08:34:52;;;;;;;10.75;4.72;;;23.40;78.50;;;;;;5054885;28;20052;-65
2022/05/24 08:37:19;;;;;;;13.90;5.22;;;23.30;78.60;;;;;;5103752;28;20064;-65
2022/05/24 08:39:45;;;;;;;8.25;4.93;;;23.40;78.80;;;;;;5071686;28;20064;-66
2022/05/24 08:42:48;;;;;;;9.40;4.60;;;23.60;78.70;;;;;;5072095;28;20079;-68
2022/05/24 08:48:23;;;;;;;10.30;6.70;;;23.30;78.80;;;;;;5064884;28;20040;-68
2022/05/24 08:50:51;;;;;;;10.52;4.88;;;23.40;77.30;;;;;;5055856;28;20036;-69
2022/05/24 08:53:35;;;;;;;9.52;5.22;;;23.40;78.80;;;;;;5071888;28;20048;-69
2022/05/24 08:56:02;;;;;;;9.23;4.82;;;23.40;77.60;;;;;;5086351;28;20118;-69
2022/05/24 08:58:41;;;;;;;9.00;5.65;;;23.30;78.70;;;;;;5038180;28;20080;-70
2022/05/24 09:01:13;;;;;;;8.32;4.93;;;23.50;77.30;;;;;;5050459;28;20397;-69
2022/05/24 09:03:39;;;;;;;10.25;5.50;;;23.50;78.90;;;;;;5067262;28;20083;-68
2022/05/24 09:06:09;;;;;;;7.40;4.18;;;23.60;78.40;;;;;;5072642;28;20048;-69
2022/05/24 09:08:47;;;;;;;9.90;4.68;;;23.40;78.70;;;;;;5071581;28;20394;-71
2022/05/24 09:11:41;;;;;;;10.32;4.55;;;23.40;78.70;;;;;;5105462;28;20486;-69
2022/05/24 09:14:13;;;;;;;14.07;5.25;;;23.40;77.10;;;;;;5098056;28;20447;-70
2022/05/24 09:17:08;;;;;;;8.87;4.73;;;23.40;78.60;;;;;;5105007;28;20394;-69
2022/05/24 09:19:35;;;;;;;7.78;4.13;;;23.60;77.10;;;;;;5050381;28;20057;-69
2022/05/24 09:22:04;;;;;;;10.98;4.53;;;23.60;78.30;;;;;;5033856;28;20045;-69
2022/05/24 09:24:39;;;;;;;10.30;4.40;;;23.70;78.40;;;;;;5017544;28;20106;-69
2022/05/24 09:27:12;;;;;;;9.38;4.78;;;23.60;78.90;;;;;;5033967;28;20394;-70
2022/05/24 09:30:03;;;;;;;6.32;3.97;;;23.50;76.70;;;;;;5018093;28;20049;-71
2022/05/24 09:32:34;;;;;;;10.57;4.38;;;23.90;78.40;;;;;;4994297;28;20508;-67
2022/05/24 09:35:21;;;;;;;11.43;4.75;;;23.90;76.60;;;;;;4993975;28;20423;-70
2022/05/24 09:38:04;;;;;;;8.40;4.35;;;23.80;77.90;;;;;;5006534;28;20075;-71
2022/05/24 09:40:32;;;;;;;9.75;5.00;;;24.20;78.10;;;;;;4992729;28;20394;-71
2022/05/24 09:43:43;;;;;;;9.20;4.32;;;24.20;80.80;;;;;;4977495;28;20137;-71
2022/05/24 09:46:19;;;;;;;8.68;4.97;;;24.30;76.30;;;;;;4947317;29;20054;-71
2022/05/24 09:49:01;;;;;;;9.60;4.70;;;24.30;76.10;;;;;;4936210;29;20398;-70
2022/05/24 09:51:33;;;;;;;8.18;4.20;;;24.50;77.90;;;;;;4968324;28;20146;-70
2022/05/24 09:53:59;;;;;;;9.27;4.60;;;24.60;77.60;;;;;;4945294;29;20134;-68
2022/05/24 09:56:30;;;;;;;8.75;4.55;;;24.30;77.00;;;;;;4944690;28;20205;-69
2022/05/24 09:58:59;;;;;;;13.00;4.97;;;24.60;77.40;;;;;;4971472;28;20452;-70
2022/05/24 10:01:50;;;;;;;7.93;3.70;;;24.40;77.20;;;;;;4965128;28;20070;-69
2022/05/24 10:04:25;;;;;;;10.10;4.20;;;24.30;76.90;;;;;;4970572;28;20055;-68
2022/05/24 10:07:02;;;;;;;8.48;4.43;;;24.30;75.70;;;;;;4952273;28;20094;-70
2022/05/24 10:09:46;;;;;;;7.95;3.75;;;24.10;77.20;;;;;;4984689;28;20059;-68
2022/05/24 10:12:16;;;;;;;5.78;3.38;;;24.30;77.00;;;;;;4970906;28;20451;-68
2022/05/24 10:14:49;;;;;;;7.97;4.10;;;24.20;76.70;;;;;;4971408;28;20109;-69
2022/05/24 10:17:38;;;;;;;6.18;3.45;;;24.40;76.90;;;;;;4954813;28;20046;-68
2022/05/24 10:20:32;;;;;;;6.65;3.28;;;24.10;75.40;;;;;;5042135;28;20070;-69
2022/05/24 10:23:04;;;;;;;8.77;3.28;;;24.20;75.30;;;;;;5104612;28;20055;-69
2022/05/24 10:25:53;;;;;;;8.80;3.53;;;24.10;75.20;;;;;;5073146;28;20052;-69
2022/05/24 10:28:44;;;;;;;6.28;3.22;;;24.00;76.60;;;;;;5074179;28;20044;-68
2022/05/24 10:31:32;;;;;;;5.45;2.60;;;23.90;76.80;;;;;;5090810;28;20132;-67
2022/05/24 10:39:43;;;;;;;5.60;1.83;;;23.80;74.90;;;;;;5073909;28;20104;-70
2022/05/24 10:42:27;;;;;;;3.90;1.77;;;24.00;75.00;;;;;;5071333;28;20090;-71
2022/05/24 10:45:09;;;;;;;6.43;1.58;;;23.80;75.30;;;;;;5107232;28;20060;-71
2022/05/24 10:47:53;;;;;;;6.38;1.80;;;23.90;76.70;;;;;;5067615;28;20053;-71
2022/05/24 10:50:23;;;;;;;2.78;1.58;;;23.60;74.90;;;;;;5073542;28;20079;-71
2022/05/24 10:52:55;;;;;;;3.25;1.48;;;23.70;76.40;;;;;;5108110;28;20390;-71
2022/05/24 10:55:30;;;;;;;2.83;1.45;;;23.90;76.70;;;;;;5090628;28;20048;-71
2022/05/24 10:58:03;;;;;;;4.10;1.98;;;24.10;75.00;;;;;;5074383;28;20394;-71
2022/05/24 11:00:38;;;;;;;2.88;1.33;;;23.90;76.40;;;;;;5074561;28;20113;-71
2022/05/24 11:03:18;;;;;;;5.03;1.63;;;24.20;76.70;;;;;;5087567;28;20044;-70
2022/05/24 11:05:45;;;;;;;4.90;1.50;;;24.40;75.20;;;;;;5083641;28;20493;-71
2022/05/24 11:08:46;;;;;;;4.63;1.80;;;24.10;76.20;;;;;;5072475;28;20123;-70
2022/05/24 11:11:28;;;;;;;7.43;1.85;;;24.00;74.80;;;;;;5050618;28;20057;-69
2022/05/24 11:13:59;;;;;;;5.60;1.75;;;23.80;74.80;;;;;;5057949;28;21071;-70
2022/05/24 11:16:40;;;;;;;3.22;1.42;;;24.00;76.40;;;;;;5072701;28;20103;-71
2022/05/24 11:19:14;;;;;;;4.32;1.55;;;23.90;75.00;;;;;;5040142;28;20521;-71
2022/05/24 11:21:51;;;;;;;4.57;1.58;;;23.80;74.80;;;;;;5057014;28;20525;-69
2022/05/24 11:24:31;;;;;;;4.93;1.70;;;23.90;76.60;;;;;;5039151;28;20513;-71
2022/05/24 11:26:57;;;;;;;4.18;1.60;;;24.00;76.70;;;;;;5037782;28;20065;-72
2022/05/24 11:29:23;;;;;;;2.08;1.20;;;23.60;76.00;;;;;;5038494;28;20476;-62
2022/05/24 11:32:08;;;;;;;2.17;1.23;;;23.60;76.20;;;;;;5055726;28;20255;-62
2022/05/24 11:34:42;;;;;;;3.45;1.40;;;23.70;76.30;;;;;;5024475;28;20422;-65
2022/05/24 11:37:14;;;;;;;3.03;1.38;;;23.80;75.10;;;;;;5039080;28;20056;-65
2022/05/24 11:39:43;;;;;;;2.22;1.20;;;23.70;76.70;;;;;;5050704;28;20090;-66
2022/05/24 11:42:24;;;;;;;3.33;1.30;;;23.80;76.60;;;;;;5056059;28;20119;-66
2022/05/24 11:44:51;;;;;;;1.92;1.15;;;23.20;79.60;;;;;;5077585;28;20477;-66
2022/05/24 11:47:35;;;;;;;35.33;2.97;;;23.90;79.70;;;;;;5055296;28;20088;-72
2022/05/24 11:50:04;;;;;;;10.05;1.67;;;23.90;76.70;;;;;;5047188;28;20052;-71
2022/05/24 11:53:04;;;;;;;9.63;1.50;;;23.70;75.10;;;;;;5052000;28;20045;-71
2022/05/24 11:55:55;;;;;;;4.72;1.30;;;23.60;75.80;;;;;;5051762;28;20041;-70
2022/05/24 11:58:23;;;;;;;5.20;1.23;;;23.40;80.00;;;;;;5049834;28;20056;-71
2022/05/24 12:01:07;;;;;;;4.93;1.55;;;23.50;77.90;;;;;;5051137;28;20453;-71
2022/05/24 12:09:15;;;;;;;3.33;1.65;;;23.50;76.90;;;;;;5047796;28;20048;-71
2022/05/24 12:11:41;;;;;;;3.30;1.27;;;23.40;76.50;;;;;;5050107;28;20052;-70
2022/05/24 12:14:23;;;;;;;3.42;1.50;;;23.40;77.40;;;;;;5034349;28;20552;-70
2022/05/24 12:16:55;;;;;;;;;;;23.50;76.80;;;;;;5050858;28;20075;-71
2022/05/24 12:19:40;;;;;;;3.78;1.50;;;23.60;77.00;;;;;;5047277;28;19921;-71
2022/05/24 12:22:15;;;;;;;4.22;1.30;;;23.50;81.10;;;;;;5031025;28;20114;-70
2022/05/24 12:24:41;;;;;;;2.30;1.35;;;23.20;80.80;;;;;;5060121;28;20107;-71
2022/05/24 12:27:35;;;;;;;3.55;1.90;;;23.70;78.20;;;;;;5051376;28;20049;-70
2022/05/24 12:30:21;;;;;;;4.75;1.50;;;23.60;77.20;;;;;;5049936;28;20041;-70
2022/05/24 12:32:47;;;;;;;3.70;1.40;;;23.40;81.30;;;;;;5032960;28;20294;-71
2022/05/24 12:35:14;;;;;;;5.03;1.80;;;23.50;77.80;;;;;;5050801;28;20053;-70
2022/05/24 12:37:53;;;;;;;2.30;1.23;;;23.70;77.90;;;;;;5067151;28;20396;-71
2022/05/24 12:40:21;;;;;;;3.83;1.20;;;23.40;78.30;;;;;;5086741;28;20049;-70
2022/05/24 12:42:56;;;;;;;2.83;1.25;;;23.70;77.90;;;;;;5054112;28;20108;-70
2022/05/24 12:45:45;;;;;;;5.45;1.30;;;23.50;77.90;;;;;;5103233;28;20080;-69
2022/05/24 12:48:17;;;;;;;3.95;1.10;;;23.70;76.40;;;;;;5067100;28;20128;-70
2022/05/24 12:50:43;;;;;;;1.98;1.23;;;23.70;77.60;;;;;;5073101;28;20486;-70
2022/05/24 12:53:10;;;;;;;4.28;1.63;;;23.80;77.00;;;;;;5105197;28;20090;-71
2022/05/24 12:55:56;;;;;;;2.20;1.25;;;23.90;77.60;;;;;;5066487;28;20087;-71
2022/05/24 12:58:36;;;;;;;6.18;1.60;;;23.90;77.40;;;;;;5069875;28;20497;-69
2022/05/24 13:01:18;;;;;;;4.95;1.45;;;23.70;80.10;;;;;;5065773;28;20055;-70
2022/05/24 13:04:09;;;;;;;9.02;1.83;;;23.70;77.50;;;;;;5104487;28;20067;-71
2022/05/24 13:06:37;;;;;;;16.63;2.25;;;23.50;75.60;;;;;;5063004;28;20158;-70
2022/05/24 13:09:11;;;;;;;8.43;2.17;;;23.40;76.80;;;;;;5105769;28;20045;-70
2022/05/24 13:11:37;;;;;;;6.65;1.50;;;23.70;77.40;;;;;;5088361;28;20170;-70
2022/05/24 13:14:03;;;;;;;7.95;1.70;;;23.70;76.90;;;;;;5072273;28;20131;-71
2022/05/24 13:16:29;;;;;;;5.35;1.70;;;23.50;77.10;;;;;;5081582;28;20040;-71
2022/05/24 13:18:55;;;;;;;6.47;1.70;;;23.60;77.10;;;;;;5072548;28;20036;-70
2022/05/24 13:21:25;;;;;;;3.70;1.40;;;23.40;77.00;;;;;;5071441;28;20183;-71
2022/05/24 13:24:10;;;;;;;5.20;1.77;;;23.40;76.80;;;;;;5073259;28;20082;-70
2022/05/24 13:26:36;;;;;;;3.92;1.40;;;23.60;77.10;;;;;;5087359;28;20047;-71
2022/05/24 13:29:24;;;;;;;3.65;1.50;;;22.10;75.60;;;;;;5052513;28;20033;-69
2022/05/24 13:34:35;;;;;;;4.43;1.80;;;23.50;75.90;;;;;;5067331;28;20045;-70
2022/05/24 13:37:03;;;;;;;6.30;1.60;;;23.50;76.70;;;;;;5086636;28;20421;-71
2022/05/24 13:39:41;;;;;;;4.35;1.40;;;23.40;76.80;;;;;;5059774;28;20390;-66
2022/05/24 13:42:09;;;;;;;5.13;1.60;;;23.50;75.70;;;;;;5070511;28;20044;-66
2022/05/24 13:44:35;;;;;;;3.92;1.55;;;23.40;76.60;;;;;;5071960;28;20044;-66
2022/05/24 13:47:07;;;;;;;4.75;1.20;;;23.30;76.80;;;;;;5071945;28;20159;-66
2022/05/24 13:49:37;;;;;;;2.90;1.33;;;23.60;77.10;;;;;;5049626;28;20463;-68
2022/05/24 13:52:17;;;;;;;2.58;1.38;;;23.60;79.70;;;;;;5069451;28;20048;-67